createdAt,value
2022-09-30T00:01:36.484Z,14.17
2022-09-30T00:04:03.518Z,13.24
2022-09-30T00:06:35.259Z,14.12
2022-09-30T00:09:02.383Z,14.24
2022-09-30T00:11:31.314Z,14.25
2022-09-30T00:13:58.418Z,14.26
2022-09-30T00:16:27.585Z,14.12
2022-09-30T00:18:55.910Z,14.26
2022-09-30T00:21:25.299Z,14.27
2022-09-30T00:23:52.008Z,13.54
2022-09-30T00:26:21.210Z,13.80
2022-09-30T00:28:55.975Z,14.26
2022-09-30T00:31:27.344Z,14.17
2022-09-30T00:34:11.516Z,14.05
2022-09-30T00:36:49.024Z,13.39
2022-09-30T00:39:22.655Z,14.19
2022-09-30T00:41:58.404Z,14.21
2022-09-30T00:44:44.248Z,14.13
2022-09-30T00:47:37.380Z,14.08
2022-09-30T00:50:25.212Z,14.06
2022-09-30T00:53:40.016Z,13.89
2022-09-30T00:56:10.481Z,14.07
2022-09-30T00:58:47.124Z,14.10
2022-09-30T01:01:15.988Z,13.69
2022-09-30T01:03:50.654Z,13.45
2022-09-30T01:06:19.067Z,13.37
2022-09-30T01:08:48.328Z,13.65
2022-09-30T01:11:17.749Z,13.89
2022-09-30T01:13:47.211Z,14.17
2022-09-30T01:16:22.901Z,14.15
2022-09-30T01:19:27.560Z,14.21
2022-09-30T01:22:08.588Z,14.28
2022-09-30T01:24:50.567Z,14.33
2022-09-30T01:27:38.415Z,14.39
2022-09-30T01:30:35.962Z,14.42
2022-09-30T01:33:37.445Z,14.48
2022-09-30T01:36:31.138Z,14.53
2022-09-30T01:39:25.786Z,14.55
2022-09-30T01:41:53.068Z,14.61
2022-09-30T01:44:29.906Z,14.57
2022-09-30T01:47:09.716Z,14.16
2022-09-30T01:49:43.945Z,14.05
2022-09-30T01:52:44.866Z,14.36
2022-09-30T01:55:21.458Z,14.12
2022-09-30T01:57:56.723Z,14.61
2022-09-30T02:00:24.629Z,14.13
2022-09-30T02:03:06.463Z,14.64
2022-09-30T02:06:16.162Z,14.53
2022-09-30T02:09:07.052Z,14.67
2022-09-30T02:11:36.309Z,14.39
2022-09-30T02:14:24.211Z,14.10
2022-09-30T02:16:56.795Z,14.20
2022-09-30T02:19:38.183Z,14.55
2022-09-30T02:22:11.984Z,14.70
2022-09-30T02:24:39.909Z,14.52
2022-09-30T02:27:12.137Z,14.29
2022-09-30T02:29:42.400Z,14.58
2022-09-30T02:32:16.862Z,13.82
2022-09-30T02:34:51.145Z,14.27
2022-09-30T02:37:22.164Z,13.04
2022-09-30T02:39:54.379Z,13.71
2022-09-30T02:42:28.597Z,13.91
2022-09-30T02:45:08.691Z,14.32
2022-09-30T02:47:38.494Z,14.43
2022-09-30T02:50:44.267Z,14.36
2022-09-30T02:53:18.973Z,14.36
2022-09-30T02:56:17.231Z,14.36
2022-09-30T02:58:49.729Z,14.31
2022-09-30T03:01:17.370Z,13.74
2022-09-30T03:04:00.125Z,12.71
2022-09-30T03:06:32.596Z,14.22
2022-09-30T03:08:59.410Z,14.07
2022-09-30T03:11:29.135Z,13.77
2022-09-30T03:14:19.307Z,13.51
2022-09-30T03:16:58.102Z,14.07
2022-09-30T03:19:27.814Z,14.12
2022-09-30T03:22:00.444Z,14.10
2022-09-30T03:24:42.701Z,14.18
2022-09-30T03:27:37.586Z,14.22
2022-09-30T03:30:22.121Z,13.50
2022-09-30T03:32:57.016Z,14.33
2022-09-30T03:35:55.001Z,13.19
2022-09-30T03:38:30.697Z,14.27
2022-09-30T03:41:09.210Z,14.31
2022-09-30T03:43:43.824Z,14.39
2022-09-30T03:46:19.094Z,13.87
2022-09-30T03:48:47.197Z,13.46
2022-09-30T03:51:13.968Z,13.23
2022-09-30T03:53:44.400Z,12.78
2022-09-30T03:56:11.121Z,13.79
2022-09-30T03:58:45.566Z,13.78
2022-09-30T04:01:21.465Z,13.46
2022-09-30T04:03:52.780Z,13.49
2022-09-30T04:06:21.907Z,14.34
2022-09-30T04:08:49.193Z,13.27
2022-09-30T04:11:16.328Z,12.97
2022-09-30T04:13:45.580Z,13.56
2022-09-30T04:16:16.893Z,13.30
2022-09-30T04:18:44.458Z,14.24
2022-09-30T04:21:16.012Z,13.68
2022-09-30T04:23:45.100Z,13.64
2022-09-30T04:26:20.086Z,13.29
2022-09-30T04:28:52.555Z,14.08
2022-09-30T04:31:20.733Z,14.65
2022-09-30T04:33:50.738Z,14.43
2022-09-30T04:36:20.612Z,13.57
2022-09-30T04:38:47.397Z,14.67
2022-09-30T04:41:17.687Z,14.32
2022-09-30T04:43:47.859Z,14.39
2022-09-30T04:46:16.402Z,14.08
2022-09-30T04:48:45.886Z,13.51
2022-09-30T04:52:17.069Z,13.52
2022-09-30T04:59:22.652Z,8.64
2022-09-30T05:01:52.286Z,13.04
2022-09-30T05:01:56.358Z,11.63
2022-09-30T05:04:21.917Z,13.54
2022-09-30T05:06:49.701Z,14.11
2022-09-30T05:09:18.997Z,13.91
2022-09-30T05:11:45.582Z,14.67
2022-09-30T05:14:12.399Z,14.17
2022-09-30T05:16:41.384Z,13.61
2022-09-30T05:19:10.345Z,14.62
2022-09-30T05:21:37.047Z,13.68
2022-09-30T05:24:04.341Z,14.43
2022-09-30T05:26:30.985Z,14.60
2022-09-30T05:28:58.120Z,15.03
2022-09-30T05:31:27.327Z,14.15
2022-09-30T05:33:58.069Z,15.15
2022-09-30T05:36:25.492Z,14.09
2022-09-30T05:38:55.121Z,14.66
2022-09-30T05:41:22.168Z,15.26
2022-09-30T05:43:52.092Z,15.28
2022-09-30T05:46:21.327Z,14.46
2022-09-30T05:48:52.638Z,14.91
2022-09-30T05:51:19.492Z,13.65
2022-09-30T05:53:48.315Z,15.09
2022-09-30T05:56:15.621Z,14.76
2022-09-30T05:58:42.470Z,15.38
2022-09-30T06:01:14.562Z,14.17
2022-09-30T06:03:43.322Z,15.31
2022-09-30T06:06:13.686Z,15.37
2022-09-30T06:08:41.414Z,15.33
2022-09-30T06:11:11.988Z,14.05
2022-09-30T06:13:39.768Z,15.25
2022-09-30T06:16:09.703Z,14.59
2022-09-30T06:18:41.485Z,15.34
2022-09-30T06:21:11.325Z,15.34
2022-09-30T06:23:38.279Z,14.63
2022-09-30T06:26:06.557Z,15.26
2022-09-30T06:28:35.813Z,14.77
2022-09-30T06:31:06.673Z,15.22
2022-09-30T06:33:37.832Z,15.25
2022-09-30T06:36:09.009Z,13.78
2022-09-30T06:38:37.528Z,15.33
2022-09-30T06:41:04.842Z,15.36
2022-09-30T06:43:41.942Z,15.09
2022-09-30T06:46:27.472Z,15.41
2022-09-30T06:49:09.065Z,15.30
2022-09-30T06:51:39.245Z,14.44
2022-09-30T06:54:05.914Z,14.32
2022-09-30T06:56:32.662Z,14.16
2022-09-30T06:59:01.867Z,13.72
2022-09-30T07:01:32.399Z,14.30
2022-09-30T07:03:59.133Z,14.42
2022-09-30T07:06:26.468Z,14.96
2022-09-30T07:08:56.840Z,14.56
2022-09-30T07:11:26.113Z,14.20
2022-09-30T07:13:57.564Z,13.58
2022-09-30T07:16:26.492Z,13.93
2022-09-30T07:18:53.943Z,14.97
2022-09-30T07:21:25.165Z,15.05
2022-09-30T07:23:53.266Z,13.79
2022-09-30T07:26:22.738Z,14.75
2022-09-30T07:28:52.559Z,15.24
2022-09-30T07:31:35.276Z,14.87
2022-09-30T07:34:07.031Z,15.13
2022-09-30T07:36:35.658Z,14.48
2022-09-30T07:39:06.713Z,15.20
2022-09-30T07:41:36.601Z,14.75
2022-09-30T07:44:07.602Z,15.35
2022-09-30T07:46:35.535Z,14.43
2022-09-30T07:49:04.353Z,14.31
2022-09-30T07:51:34.405Z,14.64
2022-09-30T07:54:05.829Z,14.61
2022-09-30T07:57:05.017Z,15.15
2022-09-30T07:59:28.440Z,15.09
2022-09-30T08:01:55.795Z,15.07
2022-09-30T08:04:23.596Z,15.07
2022-09-30T08:06:53.593Z,14.28
2022-09-30T08:09:27.037Z,15.02
2022-09-30T08:11:54.657Z,14.21
2022-09-30T08:14:23.784Z,14.31
2022-09-30T08:16:51.162Z,14.18
2022-09-30T08:19:23.162Z,14.86
2022-09-30T08:21:50.525Z,13.55
2022-09-30T08:24:19.478Z,14.10
2022-09-30T08:26:48.872Z,13.76
2022-09-30T08:29:20.781Z,14.52
2022-09-30T08:31:57.297Z,13.96
2022-09-30T08:34:24.245Z,14.33
2022-09-30T08:36:57.833Z,13.29
2022-09-30T08:39:28.572Z,13.92
2022-09-30T08:42:37.442Z,14.72
2022-09-30T08:45:31.802Z,14.98
2022-09-30T08:48:39.031Z,15.09
2022-09-30T08:51:37.318Z,15.18
2022-09-30T08:54:07.087Z,13.53
2022-09-30T08:56:34.247Z,15.25
2022-09-30T08:59:24.166Z,15.43
2022-09-30T09:01:54.927Z,15.36
2022-09-30T09:04:24.376Z,14.48
2022-09-30T09:06:58.947Z,15.13
2022-09-30T09:09:30.224Z,14.79
2022-09-30T09:12:03.245Z,15.39
2022-09-30T09:14:42.579Z,15.53
2022-09-30T09:17:31.114Z,15.64
2022-09-30T09:20:05.385Z,14.42
2022-09-30T09:22:35.536Z,15.88
2022-09-30T09:25:02.763Z,15.82
2022-09-30T09:28:02.344Z,15.25
2022-09-30T09:30:39.344Z,15.83
2022-09-30T09:33:23.174Z,16.36
2022-09-30T09:36:45.454Z,16.42
2022-09-30T09:39:22.826Z,16.44
2022-09-30T09:42:10.276Z,16.07
2022-09-30T09:44:49.487Z,16.70
2022-09-30T09:47:19.769Z,15.69
2022-09-30T09:49:57.690Z,16.97
2022-09-30T09:53:10.685Z,17.18
2022-09-30T09:55:38.411Z,16.07
2022-09-30T09:58:10.746Z,17.51
2022-09-30T10:00:46.503Z,17.73
2022-09-30T10:03:23.299Z,17.58
2022-09-30T10:06:13.239Z,17.88
2022-09-30T10:08:53.283Z,17.73
2022-09-30T10:11:22.779Z,17.31
2022-09-30T10:13:51.205Z,17.36
2022-09-30T10:16:37.959Z,17.58
2022-09-30T10:19:20.969Z,17.60
2022-09-30T10:21:51.837Z,17.67
2022-09-30T10:24:29.936Z,16.80
2022-09-30T10:26:59.338Z,17.71
2022-09-30T10:29:36.101Z,16.99
2022-09-30T10:32:07.185Z,16.73
2022-09-30T10:34:41.205Z,17.12
2022-09-30T10:37:19.979Z,16.97
2022-09-30T10:40:07.759Z,17.36
2022-09-30T10:42:36.393Z,16.15
2022-09-30T10:45:34.604Z,16.75
2022-09-30T10:48:07.153Z,17.46
2022-09-30T10:50:36.644Z,17.29
2022-09-30T10:53:15.788Z,16.00
2022-09-30T10:55:45.456Z,18.06
2022-09-30T10:58:37.613Z,18.42
2022-09-30T11:01:15.686Z,18.75
2022-09-30T11:04:40.827Z,18.76
2022-09-30T11:07:18.405Z,19.25
2022-09-30T11:10:11.661Z,18.51
2022-09-30T11:13:16.248Z,19.26
2022-09-30T11:15:45.743Z,18.91
2022-09-30T11:18:35.387Z,18.70
2022-09-30T11:21:07.869Z,17.88
2022-09-30T11:23:43.910Z,17.95
2022-09-30T11:26:22.768Z,18.43
2022-09-30T11:29:07.639Z,18.41
2022-09-30T11:31:40.867Z,18.05
2022-09-30T11:34:22.832Z,18.69
2022-09-30T11:36:58.639Z,18.62
2022-09-30T11:39:35.089Z,18.60
2022-09-30T11:42:31.669Z,17.73
2022-09-30T11:45:32.532Z,17.97
2022-09-30T11:48:31.888Z,18.25
2022-09-30T11:51:24.092Z,18.16
2022-09-30T11:54:03.817Z,18.20
2022-09-30T11:56:46.052Z,18.40
2022-09-30T11:59:20.370Z,18.02
2022-09-30T12:01:50.290Z,19.08
2022-09-30T12:04:26.092Z,19.16
2022-09-30T12:07:01.183Z,19.04
2022-09-30T12:10:04.963Z,19.21
2022-09-30T12:12:32.518Z,19.59
2022-09-30T12:15:05.965Z,18.20
2022-09-30T12:17:42.618Z,19.35
2022-09-30T12:20:29.061Z,19.01
2022-09-30T12:23:21.779Z,19.68
2022-09-30T12:25:55.716Z,19.78
2022-09-30T12:29:08.889Z,19.92
2022-09-30T12:31:47.844Z,20.21
2022-09-30T12:34:20.359Z,19.43
2022-09-30T12:37:00.654Z,19.58
2022-09-30T12:39:38.828Z,20.01
2022-09-30T12:42:28.019Z,20.86
2022-09-30T12:45:24.248Z,20.58
2022-09-30T12:47:54.815Z,20.23
2022-09-30T12:50:29.039Z,20.90
2022-09-30T12:53:10.450Z,20.77
2022-09-30T12:55:41.419Z,20.65
2022-09-30T12:58:24.487Z,20.54
2022-09-30T13:01:21.803Z,20.58
2022-09-30T13:04:10.371Z,20.29
2022-09-30T13:06:45.481Z,20.38
2022-09-30T13:09:12.203Z,20.56
2022-09-30T13:11:44.282Z,20.26
2022-09-30T13:14:35.035Z,20.92
2022-09-30T13:17:07.053Z,21.76
2022-09-30T13:19:40.981Z,21.87
2022-09-30T13:22:20.088Z,21.80
2022-09-30T13:25:00.538Z,21.82
2022-09-30T13:27:54.330Z,22.18
2022-09-30T13:30:20.939Z,22.67
2022-09-30T13:33:43.280Z,23.45
2022-09-30T13:36:26.742Z,23.38
2022-09-30T13:39:40.520Z,22.91
2022-09-30T13:42:16.393Z,22.89
2022-09-30T13:45:16.326Z,24.05
2022-09-30T13:47:56.594Z,23.78
2022-09-30T13:50:33.147Z,22.34
2022-09-30T13:53:06.523Z,22.19
2022-09-30T13:55:40.226Z,22.90
2022-09-30T13:58:28.694Z,24.10
2022-09-30T14:01:09.272Z,24.27
2022-09-30T14:03:44.942Z,26.18
2022-09-30T14:06:33.116Z,25.15
2022-09-30T14:09:06.131Z,23.93
2022-09-30T14:11:47.307Z,23.51
2022-09-30T14:14:49.428Z,25.20
2022-09-30T14:17:43.858Z,25.06
2022-09-30T14:20:39.727Z,24.99
2022-09-30T14:23:17.461Z,24.58
2022-09-30T14:26:10.248Z,26.27
2022-09-30T14:28:49.874Z,26.35
2022-09-30T14:31:16.692Z,25.92
2022-09-30T14:33:49.058Z,24.87
2022-09-30T14:36:21.893Z,24.10
2022-09-30T14:39:14.089Z,23.86
2022-09-30T14:41:49.560Z,23.41
2022-09-30T14:44:20.132Z,23.90
2022-09-30T14:46:48.809Z,23.59
2022-09-30T14:49:22.563Z,21.29
2022-09-30T14:51:49.364Z,23.07
2022-09-30T14:54:28.992Z,25.35
2022-09-30T14:56:59.222Z,25.95
2022-09-30T14:59:38.339Z,27.19
2022-09-30T15:02:15.455Z,27.78
2022-09-30T15:04:52.075Z,28.20
2022-09-30T15:07:22.656Z,27.89
2022-09-30T15:09:50.256Z,28.37
2022-09-30T15:12:21.237Z,28.48
2022-09-30T15:14:54.705Z,26.71
2022-09-30T15:17:36.506Z,26.70
2022-09-30T15:20:22.481Z,25.62
2022-09-30T15:22:53.376Z,25.25
2022-09-30T15:25:21.883Z,24.20
2022-09-30T15:27:50.218Z,24.18
2022-09-30T15:30:19.837Z,24.56
2022-09-30T15:32:52.048Z,24.00
2022-09-30T15:35:21.807Z,22.35
2022-09-30T15:37:48.933Z,23.33
2022-09-30T15:40:41.681Z,23.02
2022-09-30T15:43:11.335Z,22.68
2022-09-30T15:45:44.480Z,22.28
2022-09-30T15:48:28.681Z,22.32
2022-09-30T15:51:01.177Z,22.01
2022-09-30T15:53:47.851Z,21.43
2022-09-30T15:56:34.542Z,21.45
2022-09-30T15:59:12.160Z,20.62
2022-09-30T16:01:41.717Z,20.99
2022-09-30T16:04:10.853Z,20.75
2022-09-30T16:07:00.936Z,20.50
2022-09-30T16:09:34.540Z,20.29
2022-09-30T16:12:18.242Z,19.92
2022-09-30T16:15:00.014Z,17.83
2022-09-30T16:17:38.062Z,19.57
2022-09-30T16:20:22.645Z,19.11
2022-09-30T16:22:54.934Z,17.71
2022-09-30T16:25:28.141Z,18.45
2022-09-30T16:28:12.361Z,18.62
2022-09-30T16:30:47.651Z,17.86
2022-09-30T16:33:15.977Z,18.70
2022-09-30T16:35:47.368Z,18.71
2022-09-30T16:38:21.775Z,18.46
2022-09-30T16:40:48.646Z,17.56
2022-09-30T16:43:17.095Z,17.70
2022-09-30T16:45:46.328Z,18.24
2022-09-30T16:48:17.302Z,18.21
2022-09-30T16:50:51.580Z,17.92
2022-09-30T16:53:18.669Z,17.09
2022-09-30T16:55:45.408Z,17.27
2022-09-30T16:58:15.233Z,17.62
2022-09-30T17:00:47.159Z,17.64
2022-09-30T17:03:16.158Z,16.22
2022-09-30T17:05:46.112Z,16.39
2022-09-30T17:08:17.028Z,17.87
2022-09-30T17:10:49.935Z,15.30
2022-09-30T17:13:19.716Z,18.08
2022-09-30T17:15:52.094Z,16.85
2022-09-30T17:18:24.259Z,16.84
2022-09-30T17:20:53.117Z,17.21
2022-09-30T17:23:26.291Z,17.03
2022-09-30T17:25:54.752Z,17.32
2022-09-30T17:28:24.624Z,17.97
2022-09-30T17:30:51.481Z,16.87
2022-09-30T17:33:20.897Z,17.91
2022-09-30T17:36:00.526Z,17.21
2022-09-30T17:38:27.272Z,17.54
2022-09-30T17:41:12.439Z,17.70
2022-09-30T17:43:41.820Z,17.18
2022-09-30T17:46:08.352Z,17.60
2022-09-30T17:48:35.631Z,16.48
2022-09-30T17:51:05.590Z,15.66
2022-09-30T17:53:32.609Z,16.91
2022-09-30T17:56:10.215Z,17.40
2022-09-30T17:58:40.141Z,16.82
2022-09-30T18:01:10.550Z,17.25
2022-09-30T18:03:37.323Z,15.45
2022-09-30T18:06:08.636Z,15.98
2022-09-30T18:08:36.033Z,16.47
2022-09-30T18:11:02.918Z,16.60
2022-09-30T18:13:32.337Z,15.80
2022-09-30T18:16:05.458Z,16.14
2022-09-30T18:18:34.215Z,16.91
2022-09-30T18:21:00.901Z,16.27
2022-09-30T18:23:29.884Z,15.61
2022-09-30T18:25:59.971Z,15.39
2022-09-30T18:28:29.282Z,15.92
2022-09-30T18:30:55.844Z,16.70
2022-09-30T18:33:22.620Z,16.59
2022-09-30T18:35:49.386Z,16.69
2022-09-30T18:38:18.680Z,15.82
2022-09-30T18:40:45.886Z,15.63
2022-09-30T18:43:16.911Z,16.35
2022-09-30T18:45:53.675Z,15.55
2022-09-30T18:48:20.419Z,16.63
2022-09-30T18:50:49.323Z,15.58
2022-09-30T18:53:16.111Z,16.12
2022-09-30T18:55:44.284Z,15.56
2022-09-30T18:58:11.029Z,15.20
2022-09-30T19:00:38.317Z,16.27
2022-09-30T19:03:05.123Z,15.50
2022-09-30T19:05:31.860Z,15.67
2022-09-30T19:07:58.589Z,15.91
2022-09-30T19:10:27.758Z,15.86
2022-09-30T19:12:54.467Z,15.68
2022-09-30T19:15:23.615Z,15.51
2022-09-30T19:17:53.701Z,16.36
2022-09-30T19:20:20.439Z,16.16
2022-09-30T19:22:48.095Z,16.81
2022-09-30T19:25:17.262Z,15.89
2022-09-30T19:27:44.566Z,16.21
2022-09-30T19:30:14.881Z,15.74
2022-09-30T19:32:41.660Z,15.65
2022-09-30T19:35:10.585Z,16.82
2022-09-30T19:37:55.282Z,16.83
2022-09-30T19:40:26.866Z,15.42
2022-09-30T19:42:53.587Z,15.77
2022-09-30T19:45:25.789Z,15.59
2022-09-30T19:47:54.042Z,15.00
2022-09-30T19:50:20.721Z,15.42
2022-09-30T19:52:56.098Z,15.44
2022-09-30T19:55:26.877Z,14.95
2022-09-30T19:57:53.749Z,16.13
2022-09-30T20:00:22.739Z,16.14
2022-09-30T20:02:52.690Z,16.19
2022-09-30T20:05:19.482Z,15.11
2022-09-30T20:07:51.231Z,15.91
2022-09-30T20:10:18.435Z,15.88
2022-09-30T20:12:45.746Z,16.31
2022-09-30T20:15:30.963Z,16.02
2022-09-30T20:17:58.339Z,16.56
2022-09-30T20:20:37.301Z,16.34
2022-09-30T20:23:04.322Z,15.35
2022-09-30T20:25:36.319Z,16.39
2022-09-30T20:28:09.139Z,16.42
2022-09-30T20:30:48.292Z,16.57
2022-09-30T20:33:19.682Z,16.59
2022-09-30T20:35:47.226Z,15.49
2022-09-30T20:38:17.450Z,16.55
2022-09-30T20:40:44.655Z,15.08
2022-09-30T20:43:11.353Z,16.20
2022-09-30T20:45:41.141Z,14.65
2022-09-30T20:48:08.434Z,16.39
2022-09-30T20:50:38.443Z,15.63
2022-09-30T20:53:14.040Z,15.13
2022-09-30T20:55:44.619Z,16.43
2022-09-30T20:58:12.680Z,16.46
2022-09-30T21:00:40.969Z,16.50
2022-09-30T21:03:12.266Z,16.20
2022-09-30T21:05:41.402Z,16.44
2022-09-30T21:08:10.106Z,16.44
2022-09-30T21:10:38.683Z,15.55
2022-09-30T21:13:10.518Z,15.86
2022-09-30T21:15:40.477Z,16.29
2022-09-30T21:18:07.380Z,15.69
2022-09-30T21:20:36.302Z,15.46
2022-09-30T21:23:03.934Z,16.36
2022-09-30T21:25:31.929Z,15.29
2022-09-30T21:27:58.772Z,15.69
2022-09-30T21:30:27.090Z,16.24
2022-09-30T21:32:56.769Z,15.79
2022-09-30T21:35:28.247Z,15.34
2022-09-30T21:37:54.940Z,15.94
2022-09-30T21:40:23.905Z,15.24
2022-09-30T21:42:53.107Z,15.24
2022-09-30T21:45:22.000Z,15.96
2022-09-30T21:47:51.144Z,15.00
2022-09-30T21:50:17.695Z,15.82
2022-09-30T21:52:44.357Z,15.54
2022-09-30T21:55:12.531Z,15.65
2022-09-30T21:57:39.235Z,15.70
2022-09-30T22:00:06.100Z,14.41
2022-09-30T22:02:40.783Z,15.83
2022-09-30T22:05:08.021Z,15.67
2022-09-30T22:07:34.982Z,14.31
2022-09-30T22:10:09.021Z,14.87
2022-09-30T22:12:38.267Z,14.81
2022-09-30T22:15:05.015Z,15.86
2022-09-30T22:17:31.756Z,14.98
2022-09-30T22:20:01.098Z,15.28
2022-09-30T22:22:30.532Z,15.97
2022-09-30T22:24:57.172Z,15.39
2022-09-30T22:27:24.871Z,15.51
2022-09-30T22:29:51.510Z,14.52
2022-09-30T22:32:18.412Z,15.04
2022-09-30T22:35:03.497Z,16.08
2022-09-30T22:37:48.734Z,14.98
2022-09-30T22:40:15.403Z,15.21
2022-09-30T22:42:47.940Z,14.89
2022-09-30T22:45:17.059Z,15.31
2022-09-30T22:47:43.750Z,15.80
2022-09-30T22:50:10.444Z,14.18
2022-09-30T22:52:37.087Z,15.60
2022-09-30T22:55:04.139Z,15.38
2022-09-30T22:57:31.064Z,15.85
2022-09-30T23:00:00.023Z,15.86
2022-09-30T23:02:26.813Z,14.71
2022-09-30T23:04:59.013Z,15.92
2022-09-30T23:07:25.803Z,14.05
2022-09-30T23:09:57.568Z,14.70
2022-09-30T23:12:29.950Z,15.98
2022-09-30T23:14:57.533Z,15.17
2022-09-30T23:17:25.464Z,15.65
2022-09-30T23:19:54.634Z,15.98
2022-09-30T23:22:21.288Z,15.06
2022-09-30T23:24:50.173Z,14.39
2022-09-30T23:27:16.872Z,16.02
2022-09-30T23:29:43.528Z,15.41
2022-09-30T23:32:10.307Z,16.05
2022-09-30T23:34:39.433Z,15.79
2022-09-30T23:37:06.139Z,15.53
2022-09-30T23:39:38.119Z,16.07
2022-09-30T23:42:04.834Z,15.22
2022-09-30T23:44:31.540Z,15.32
2022-09-30T23:47:16.632Z,15.80
2022-09-30T23:49:47.740Z,15.33
2022-09-30T23:52:17.815Z,15.10
2022-09-30T23:54:46.884Z,15.04
2022-09-30T23:57:13.608Z,14.83
2022-09-30T23:59:42.602Z,15.21
